createdAt,value
2022-12-24T00:02:49.214Z,2.28
2022-12-24T00:05:51.180Z,1.90
2022-12-24T00:08:52.901Z,2.15
2022-12-24T00:11:54.434Z,1.83
2022-12-24T00:14:56.024Z,2.10
2022-12-24T00:17:57.640Z,1.70
2022-12-24T00:20:59.171Z,2.60
2022-12-24T00:24:03.819Z,1.87
2022-12-24T00:27:05.922Z,1.73
2022-12-24T00:30:08.149Z,1.92
2022-12-24T00:33:10.239Z,1.70
2022-12-24T00:36:11.789Z,1.80
2022-12-24T00:39:13.220Z,1.90
2022-12-24T00:42:14.673Z,2.07
2022-12-24T00:45:16.168Z,2.00
2022-12-24T00:48:17.577Z,1.70
2022-12-24T00:51:20.053Z,2.10
2022-12-24T00:54:21.574Z,1.80
2022-12-24T00:57:22.986Z,1.80
2022-12-24T01:00:24.435Z,1.77
2022-12-24T01:03:37.971Z,1.97
2022-12-24T01:06:39.546Z,2.42
2022-12-24T01:09:41.070Z,1.60
2022-12-24T01:12:43.199Z,1.80
2022-12-24T01:15:44.739Z,1.77
2022-12-24T01:18:46.281Z,1.85
2022-12-24T01:21:47.779Z,1.70
2022-12-24T01:24:49.310Z,2.10
2022-12-24T01:27:50.702Z,2.03
2022-12-24T01:30:52.313Z,1.83
2022-12-24T01:33:53.895Z,1.90
2022-12-24T01:36:55.439Z,1.90
2022-12-24T01:40:16.991Z,1.70
2022-12-24T01:43:24.313Z,1.70
2022-12-24T01:46:31.223Z,1.65
2022-12-24T01:49:33.382Z,1.80
2022-12-24T01:52:36.745Z,2.78
2022-12-24T01:55:39.809Z,1.83
2022-12-24T01:58:46.785Z,2.10
2022-12-24T02:01:51.021Z,2.92
2022-12-24T02:05:18.493Z,2.10
2022-12-24T02:08:20.543Z,2.15
2022-12-24T02:11:22.595Z,2.10
2022-12-24T02:14:29.205Z,1.88
2022-12-24T02:18:06.009Z,1.90
2022-12-24T02:21:49.263Z,2.03
2022-12-24T02:24:56.975Z,2.35
2022-12-24T02:28:16.497Z,2.28
2022-12-24T02:31:27.564Z,1.90
2022-12-24T02:35:01.070Z,2.10
2022-12-24T02:38:12.785Z,2.00
2022-12-24T02:41:25.841Z,2.20
2022-12-24T02:44:30.273Z,2.05
2022-12-24T02:47:34.071Z,1.85
2022-12-24T02:50:36.066Z,2.33
2022-12-24T02:53:39.069Z,2.17
2022-12-24T02:56:59.094Z,2.53
2022-12-24T03:00:14.912Z,2.75
2022-12-24T03:03:27.371Z,2.42
2022-12-24T03:09:57.227Z,2.65
2022-12-24T03:13:16.229Z,2.00
2022-12-24T03:16:23.487Z,2.05
2022-12-24T03:19:26.406Z,1.70
2022-12-24T03:22:28.057Z,1.83
2022-12-24T03:25:29.584Z,2.03
2022-12-24T03:28:32.418Z,2.03
2022-12-24T03:31:52.463Z,2.20
2022-12-24T03:34:54.428Z,1.73
2022-12-24T03:37:56.627Z,2.15
2022-12-24T03:40:58.211Z,1.90
2022-12-24T03:43:59.717Z,2.10
2022-12-24T03:47:01.181Z,1.90
2022-12-24T03:50:02.602Z,1.70
2022-12-24T03:53:04.013Z,2.03
2022-12-24T03:56:05.615Z,1.80
2022-12-24T03:59:07.096Z,1.75
2022-12-24T04:02:08.855Z,2.07
2022-12-24T04:05:15.099Z,1.98
2022-12-24T04:08:16.612Z,2.17
2022-12-24T04:11:18.398Z,1.80
2022-12-24T04:14:19.891Z,2.20
2022-12-24T04:17:21.320Z,1.90
2022-12-24T04:20:22.747Z,2.30
2022-12-24T04:23:24.326Z,2.23
2022-12-24T04:26:25.973Z,1.90
2022-12-24T04:29:27.499Z,2.10
2022-12-24T04:32:28.971Z,1.63
2022-12-24T04:35:30.418Z,1.60
2022-12-24T04:38:32.188Z,1.90
2022-12-24T04:41:33.671Z,2.70
2022-12-24T04:44:35.100Z,2.40
2022-12-24T04:47:36.529Z,2.30
2022-12-24T04:50:37.984Z,2.00
2022-12-24T04:53:40.365Z,2.27
2022-12-24T04:59:43.237Z,1.80
2022-12-24T05:02:44.971Z,2.03
2022-12-24T05:05:47.413Z,2.03
2022-12-24T05:11:50.396Z,2.55
2022-12-24T05:14:51.841Z,1.70
2022-12-24T05:17:53.329Z,2.33
2022-12-24T05:20:54.748Z,1.77
2022-12-24T05:24:14.765Z,2.23
2022-12-24T05:27:16.364Z,1.80
2022-12-24T05:30:17.841Z,2.50
2022-12-24T05:33:19.372Z,2.20
2022-12-24T05:36:21.981Z,1.85
2022-12-24T05:39:23.464Z,1.90
2022-12-24T05:42:24.882Z,2.13
2022-12-24T05:45:26.323Z,2.00
2022-12-24T05:48:28.296Z,2.80
2022-12-24T05:51:29.747Z,2.10
2022-12-24T05:54:31.796Z,2.00
2022-12-24T05:57:33.280Z,2.08
2022-12-24T06:00:34.872Z,1.90
2022-12-24T06:03:37.169Z,2.30
2022-12-24T06:06:38.685Z,1.85
2022-12-24T06:09:40.089Z,2.97
2022-12-24T06:12:41.492Z,2.03
2022-12-24T06:15:44.057Z,1.92
2022-12-24T06:18:46.253Z,2.08
2022-12-24T06:21:47.803Z,1.73
2022-12-24T06:24:49.234Z,2.20
2022-12-24T06:27:50.732Z,2.63
2022-12-24T06:30:57.144Z,1.93
2022-12-24T06:34:01.899Z,2.80
2022-12-24T06:37:03.345Z,2.43
2022-12-24T06:40:05.297Z,2.10
2022-12-24T06:43:06.888Z,2.00
2022-12-24T06:46:08.460Z,2.03
2022-12-24T06:49:10.060Z,2.40
2022-12-24T06:52:11.567Z,2.03
2022-12-24T06:55:12.973Z,2.10
2022-12-24T06:58:14.609Z,2.67
2022-12-24T07:01:19.195Z,2.17
2022-12-24T07:04:20.946Z,2.83
2022-12-24T07:07:22.548Z,2.83
2022-12-24T07:10:24.131Z,2.67
2022-12-24T07:13:25.713Z,2.13
2022-12-24T07:16:27.256Z,2.40
2022-12-24T07:19:28.713Z,3.13
2022-12-24T07:22:30.247Z,3.22
2022-12-24T07:25:31.799Z,2.80
2022-12-24T07:28:33.409Z,3.43
2022-12-24T07:31:34.900Z,3.03
2022-12-24T07:34:36.570Z,2.67
2022-12-24T07:37:38.095Z,2.35
2022-12-24T07:40:39.515Z,2.53
2022-12-24T07:43:41.055Z,2.67
2022-12-24T07:46:43.389Z,2.60
2022-12-24T07:52:46.453Z,2.70
2022-12-24T07:55:47.953Z,2.93
2022-12-24T07:58:50.544Z,2.80
2022-12-24T08:01:52.442Z,2.63
2022-12-24T08:04:54.093Z,2.80
2022-12-24T08:07:55.590Z,2.75
2022-12-24T08:11:02.704Z,2.78
2022-12-24T08:14:04.201Z,2.38
2022-12-24T08:17:05.635Z,3.27
2022-12-24T08:20:08.044Z,2.57
2022-12-24T08:26:12.328Z,2.40
2022-12-24T08:29:13.942Z,2.92
2022-12-24T08:32:15.366Z,3.00
2022-12-24T08:35:17.055Z,2.80
2022-12-24T08:38:18.875Z,3.00
2022-12-24T08:41:20.411Z,3.08
2022-12-24T08:44:22.519Z,3.58
2022-12-24T08:47:23.996Z,3.22
2022-12-24T08:50:25.524Z,3.77
2022-12-24T08:53:26.972Z,2.90
2022-12-24T08:56:28.436Z,3.75
2022-12-24T08:59:29.863Z,3.70
2022-12-24T09:02:31.371Z,3.70
2022-12-24T09:05:32.853Z,3.33
2022-12-24T09:08:35.223Z,3.03
2022-12-24T09:11:36.778Z,3.13
2022-12-24T09:14:38.227Z,3.00
2022-12-24T09:17:40.166Z,3.40
2022-12-24T09:20:46.676Z,4.00
2022-12-24T09:23:48.886Z,4.18
2022-12-24T09:26:57.256Z,4.30
2022-12-24T09:29:59.118Z,4.07
2022-12-24T09:33:00.536Z,4.17
2022-12-24T09:36:02.454Z,4.30
2022-12-24T09:39:04.259Z,3.58
2022-12-24T09:42:26.918Z,3.22
2022-12-24T09:48:39.330Z,2.72
2022-12-24T09:51:48.271Z,4.75
2022-12-24T09:54:58.910Z,3.80
2022-12-24T09:58:04.218Z,3.20
2022-12-24T10:01:06.099Z,3.47
2022-12-24T10:04:13.489Z,3.33
2022-12-24T10:07:28.058Z,2.67
2022-12-24T10:10:35.033Z,3.63
2022-12-24T10:13:50.561Z,3.08
2022-12-24T10:17:07.675Z,3.15
2022-12-24T10:20:45.967Z,3.33
2022-12-24T10:24:01.564Z,3.28
2022-12-24T10:27:11.781Z,3.10
2022-12-24T10:30:19.637Z,3.45
2022-12-24T10:33:34.797Z,5.07
2022-12-24T10:36:36.283Z,4.63
2022-12-24T10:39:37.819Z,4.35
2022-12-24T10:42:50.540Z,3.80
2022-12-24T10:46:01.293Z,5.00
2022-12-24T10:49:07.398Z,4.28
2022-12-24T10:52:14.955Z,4.80
2022-12-24T10:55:19.098Z,5.75
2022-12-24T10:58:20.775Z,3.45
2022-12-24T11:01:43.633Z,4.05
2022-12-24T11:04:49.327Z,3.70
2022-12-24T11:08:03.668Z,3.72
2022-12-24T11:11:09.049Z,3.67
2022-12-24T11:14:16.308Z,3.25
2022-12-24T11:17:23.029Z,3.83
2022-12-24T11:20:28.640Z,3.90
2022-12-24T11:23:30.669Z,3.92
2022-12-24T11:26:32.489Z,3.60
2022-12-24T11:29:33.995Z,3.00
2022-12-24T11:32:35.473Z,3.00
2022-12-24T11:35:45.829Z,3.17
2022-12-24T11:38:54.712Z,4.30
2022-12-24T11:41:56.484Z,3.65
2022-12-24T11:45:00.555Z,3.47
2022-12-24T11:48:02.031Z,3.70
2022-12-24T11:51:06.141Z,3.73
2022-12-24T11:54:19.610Z,3.92
2022-12-24T11:57:25.827Z,3.80
2022-12-24T12:00:28.407Z,3.28
2022-12-24T12:03:35.887Z,3.05
2022-12-24T12:06:47.662Z,3.50
2022-12-24T12:09:53.077Z,2.88
2022-12-24T12:13:09.799Z,2.67
2022-12-24T12:16:21.429Z,2.92
2022-12-24T12:19:25.846Z,3.13
2022-12-24T12:22:56.722Z,3.58
2022-12-24T12:26:01.747Z,3.15
2022-12-24T12:29:28.700Z,2.63
2022-12-24T12:32:49.069Z,2.97
2022-12-24T12:35:51.571Z,3.40
2022-12-24T12:38:53.142Z,3.10
2022-12-24T12:42:34.896Z,2.80
2022-12-24T12:45:46.673Z,3.00
2022-12-24T12:49:14.092Z,3.70
2022-12-24T12:52:58.389Z,3.42
2022-12-24T12:56:17.277Z,3.50
2022-12-24T12:59:33.099Z,3.67
2022-12-24T13:02:47.980Z,3.50
2022-12-24T13:06:08.158Z,3.70
2022-12-24T13:09:20.970Z,3.33
2022-12-24T13:12:33.499Z,2.95
2022-12-24T13:15:51.521Z,3.00
2022-12-24T13:19:25.423Z,2.38
2022-12-24T13:22:27.250Z,2.95
2022-12-24T13:25:50.993Z,2.88
2022-12-24T13:28:52.470Z,3.03
2022-12-24T13:32:13.955Z,3.80
2022-12-24T13:35:18.519Z,4.00
2022-12-24T13:38:29.445Z,2.95
2022-12-24T13:41:38.802Z,3.33
2022-12-24T13:44:41.880Z,3.20
2022-12-24T13:47:43.337Z,3.43
2022-12-24T13:50:56.483Z,3.37
2022-12-24T13:53:59.834Z,3.28
2022-12-24T13:57:01.581Z,3.63
2022-12-24T14:00:21.022Z,3.20
2022-12-24T14:03:43.593Z,3.00
2022-12-24T14:09:51.817Z,2.78
2022-12-24T14:15:55.182Z,3.20
2022-12-24T14:19:03.075Z,2.58
2022-12-24T14:22:22.868Z,2.88
2022-12-24T14:25:24.360Z,2.53
2022-12-24T14:28:34.752Z,2.20
2022-12-24T14:31:36.303Z,2.20
2022-12-24T14:34:37.841Z,2.25
2022-12-24T14:37:41.137Z,2.30
2022-12-24T14:41:17.622Z,3.03
2022-12-24T14:44:43.395Z,3.15
2022-12-24T14:48:16.784Z,3.72
2022-12-24T14:51:47.849Z,3.03
2022-12-24T14:54:49.335Z,3.17
2022-12-24T14:57:50.807Z,3.20
2022-12-24T15:00:55.144Z,3.07
2022-12-24T15:04:05.938Z,3.10
2022-12-24T15:07:09.063Z,2.80
2022-12-24T15:10:26.014Z,2.80
2022-12-24T15:13:36.933Z,4.18
2022-12-24T15:16:39.752Z,5.80
2022-12-24T15:19:44.234Z,5.82
2022-12-24T15:22:50.064Z,3.22
2022-12-24T15:25:52.168Z,3.70
2022-12-24T15:29:02.183Z,2.92
2022-12-24T15:32:05.002Z,3.00
2022-12-24T15:35:06.844Z,2.45
2022-12-24T15:38:25.561Z,5.63
2022-12-24T15:41:31.534Z,4.82
2022-12-24T15:44:37.032Z,5.90
2022-12-24T15:47:47.159Z,5.22
2022-12-24T15:50:50.625Z,4.72
2022-12-24T15:54:01.093Z,4.40
2022-12-24T15:57:22.948Z,6.20
2022-12-24T16:00:30.844Z,4.85
2022-12-24T16:03:33.310Z,4.97
2022-12-24T16:06:55.493Z,4.82
2022-12-24T16:10:14.832Z,4.47
2022-12-24T16:13:20.290Z,4.43
2022-12-24T16:16:30.667Z,4.07
2022-12-24T16:19:39.748Z,4.47
2022-12-24T16:22:46.121Z,4.60
2022-12-24T16:25:48.020Z,5.10
2022-12-24T16:28:49.677Z,6.07
2022-12-24T16:31:56.611Z,5.40
2022-12-24T16:34:58.459Z,6.43
2022-12-24T16:37:59.980Z,5.15
2022-12-24T16:41:01.446Z,5.72
2022-12-24T16:44:02.872Z,6.60
2022-12-24T16:47:06.460Z,6.67
2022-12-24T16:50:08.667Z,8.45
2022-12-24T16:53:17.684Z,9.85
2022-12-24T16:56:20.286Z,8.93
2022-12-24T16:59:24.139Z,7.88
2022-12-24T17:02:25.844Z,7.13
2022-12-24T17:05:28.343Z,5.47
2022-12-24T17:11:31.153Z,6.57
2022-12-24T17:14:32.865Z,6.40
2022-12-24T17:17:34.847Z,6.28
2022-12-24T17:20:36.312Z,4.50
2022-12-24T17:23:41.444Z,3.40
2022-12-24T17:26:43.600Z,3.60
2022-12-24T17:29:45.160Z,3.20
2022-12-24T17:32:46.661Z,2.93
2022-12-24T17:35:49.152Z,3.60
2022-12-24T17:38:50.718Z,3.72
2022-12-24T17:41:52.231Z,3.40
2022-12-24T17:44:53.732Z,4.10
2022-12-24T17:47:55.171Z,5.17
2022-12-24T17:50:56.731Z,4.87
2022-12-24T17:53:58.611Z,4.18
2022-12-24T17:57:00.251Z,3.22
2022-12-24T18:00:01.847Z,3.80
2022-12-24T18:03:06.105Z,3.75
2022-12-24T18:06:10.229Z,3.42
2022-12-24T18:09:11.731Z,3.13
2022-12-24T18:12:13.447Z,3.10
2022-12-24T18:15:19.050Z,3.33
2022-12-24T18:18:20.641Z,3.67
2022-12-24T18:21:25.757Z,5.93
2022-12-24T18:24:27.286Z,6.40
2022-12-24T18:27:28.763Z,5.47
2022-12-24T18:30:30.172Z,5.40
2022-12-24T18:33:32.924Z,5.88
2022-12-24T18:36:34.985Z,4.88
2022-12-24T18:39:36.476Z,3.00
2022-12-24T18:42:41.138Z,3.23
2022-12-24T18:45:43.916Z,3.90
2022-12-24T18:48:47.743Z,4.57
2022-12-24T18:51:49.286Z,3.55
2022-12-24T18:54:50.764Z,3.78
2022-12-24T18:57:52.209Z,3.60
2022-12-24T19:00:53.673Z,4.57
2022-12-24T19:03:55.624Z,4.28
2022-12-24T19:06:57.130Z,4.88
2022-12-24T19:09:58.710Z,4.03
2022-12-24T19:13:00.272Z,3.85
2022-12-24T19:16:05.725Z,3.67
2022-12-24T19:19:09.283Z,3.58
2022-12-24T19:22:10.820Z,4.65
2022-12-24T19:25:12.353Z,5.23
2022-12-24T19:28:13.802Z,7.40
2022-12-24T19:31:18.168Z,2.80
2022-12-24T19:34:19.827Z,3.35
2022-12-24T19:37:21.356Z,2.80
2022-12-24T19:40:22.921Z,2.07
2022-12-24T19:43:24.409Z,2.45
2022-12-24T19:46:29.273Z,3.13
2022-12-24T19:49:30.894Z,3.15
2022-12-24T19:52:32.363Z,2.47
2022-12-24T19:55:33.784Z,2.73
2022-12-24T19:58:35.956Z,3.03
2022-12-24T20:01:37.757Z,2.60
2022-12-24T20:04:40.079Z,2.35
2022-12-24T20:07:42.202Z,2.60
2022-12-24T20:10:44.257Z,3.00
2022-12-24T20:13:46.006Z,3.20
2022-12-24T20:16:47.620Z,3.00
2022-12-24T20:19:49.158Z,3.30
2022-12-24T20:22:50.744Z,3.07
2022-12-24T20:26:03.057Z,3.97
2022-12-24T20:29:06.536Z,3.72
2022-12-24T20:32:08.233Z,3.60
2022-12-24T20:35:09.890Z,4.03
2022-12-24T20:38:11.447Z,4.13
2022-12-24T20:41:14.768Z,4.30
2022-12-24T20:44:16.259Z,5.03
2022-12-24T20:47:17.786Z,9.50
2022-12-24T20:50:23.652Z,9.48
2022-12-24T20:53:25.808Z,8.63
2022-12-24T20:56:28.166Z,13.13
2022-12-24T21:02:31.381Z,10.15
2022-12-24T21:05:33.189Z,11.38
2022-12-24T21:08:34.670Z,12.60
2022-12-24T21:11:51.452Z,10.57
2022-12-24T21:14:53.012Z,8.50
2022-12-24T21:17:54.884Z,9.38
2022-12-24T21:20:56.424Z,6.78
2022-12-24T21:23:58.389Z,6.03
2022-12-24T21:26:59.871Z,6.55
2022-12-24T21:30:01.343Z,6.87
2022-12-24T21:33:02.760Z,7.20
2022-12-24T21:36:04.798Z,7.20
2022-12-24T21:39:06.406Z,7.97
2022-12-24T21:42:08.130Z,8.17
2022-12-24T21:45:10.452Z,10.10
2022-12-24T21:48:32.055Z,9.20
2022-12-24T21:51:33.579Z,9.18
2022-12-24T21:54:35.090Z,9.33
2022-12-24T21:57:54.877Z,8.70
2022-12-24T22:00:56.488Z,8.13
2022-12-24T22:03:58.023Z,8.48
2022-12-24T22:07:19.223Z,7.40
2022-12-24T22:10:39.704Z,8.60
2022-12-24T22:13:41.279Z,9.30
2022-12-24T22:16:43.157Z,8.43
2022-12-24T22:19:44.713Z,8.93
2022-12-24T22:22:47.916Z,6.60
2022-12-24T22:25:49.422Z,6.95
2022-12-24T22:28:50.854Z,7.43
2022-12-24T22:31:52.431Z,7.90
2022-12-24T22:34:53.876Z,8.00
2022-12-24T22:37:59.853Z,6.83
2022-12-24T22:41:10.609Z,4.90
2022-12-24T22:44:12.092Z,5.85
2022-12-24T22:47:13.501Z,3.97
2022-12-24T22:50:14.921Z,3.40
2022-12-24T22:53:16.504Z,2.60
2022-12-24T22:56:21.507Z,3.17
2022-12-24T22:59:23.027Z,3.50
2022-12-24T23:02:28.541Z,3.50
2022-12-24T23:05:30.600Z,3.10
2022-12-24T23:08:33.722Z,3.10
2022-12-24T23:11:35.275Z,3.67
2022-12-24T23:14:55.296Z,3.63
2022-12-24T23:17:56.775Z,3.05
2022-12-24T23:20:58.693Z,3.40
2022-12-24T23:24:01.213Z,3.53
2022-12-24T23:27:02.780Z,2.83
2022-12-24T23:30:04.870Z,2.90
2022-12-24T23:33:06.436Z,3.78
2022-12-24T23:36:08.701Z,3.27
2022-12-24T23:39:10.339Z,3.45
2022-12-24T23:42:11.927Z,3.30
2022-12-24T23:45:13.582Z,3.20
2022-12-24T23:48:15.691Z,2.90
2022-12-24T23:51:19.871Z,2.90
2022-12-24T23:54:21.331Z,3.00
2022-12-24T23:57:22.748Z,3.17
